createdAt,value
2019-06-10T08:30:38.339Z,12.58
2019-06-10T08:33:07.677Z,11.55
2019-06-10T08:35:45.437Z,11.25
2019-06-10T08:38:08.015Z,12.23
2019-06-10T08:40:38.334Z,12.13
2019-06-10T08:43:07.902Z,11.40
2019-06-10T08:45:37.211Z,12.05
2019-06-10T08:48:06.713Z,10.63
2019-06-10T08:50:37.644Z,12.68
2019-06-10T08:53:14.411Z,11.08
2019-06-10T08:55:39.583Z,11.97
2019-06-10T08:58:09.066Z,11.48
2019-06-10T09:00:39.154Z,12.20
2019-06-10T09:03:09.471Z,10.25
2019-06-10T09:05:40.655Z,11.22
2019-06-10T09:08:09.835Z,10.53
2019-06-10T09:10:40.979Z,11.30
2019-06-10T09:13:10.282Z,10.40
2019-06-10T09:15:41.479Z,10.90
2019-06-10T09:18:13.961Z,10.88
2019-06-10T09:20:47.513Z,11.28
2019-06-10T09:23:20.908Z,10.25
2019-06-10T09:25:47.648Z,11.03
2019-06-10T09:28:15.329Z,10.00
2019-06-10T09:30:50.456Z,10.60
2019-06-10T09:33:15.819Z,11.48
2019-06-10T09:35:47.789Z,10.70
2019-06-10T09:38:16.135Z,10.65
2019-06-10T09:41:00.808Z,9.43
2019-06-10T09:43:24.741Z,10.43
2019-06-10T09:45:56.278Z,9.98
2019-06-10T09:48:25.497Z,10.63
2019-06-10T09:50:58.578Z,10.23
2019-06-10T09:53:33.330Z,8.90
2019-06-10T09:55:56.813Z,10.28
2019-06-10T09:58:26.115Z,9.68
2019-06-10T10:00:58.277Z,10.88
2019-06-10T10:03:27.748Z,9.43
2019-06-10T10:06:09.911Z,9.73
2019-06-10T10:08:28.232Z,9.78
2019-06-10T10:10:59.011Z,9.30
2019-06-10T10:13:28.614Z,9.30
2019-06-10T10:15:57.887Z,8.68
2019-06-10T10:18:27.210Z,9.25
2019-06-10T10:21:00.053Z,9.95
2019-06-10T10:23:27.774Z,8.80
2019-06-10T10:25:57.352Z,9.25
2019-06-10T10:28:26.770Z,9.88
2019-06-10T10:30:58.174Z,9.20
2019-06-10T10:33:30.230Z,8.78
2019-06-10T10:35:58.088Z,9.18
2019-06-10T10:38:27.379Z,8.53
2019-06-10T10:40:59.185Z,9.75
2019-06-10T10:43:33.170Z,7.70
2019-06-10T10:46:00.430Z,8.20
2019-06-10T10:48:29.691Z,9.18
2019-06-10T10:50:58.995Z,9.28
2019-06-10T10:53:28.300Z,8.95
2019-06-10T10:55:58.600Z,8.65
2019-06-10T10:58:27.899Z,8.65
2019-06-10T11:00:57.922Z,8.00
2019-06-10T11:03:28.016Z,8.43
2019-06-10T11:06:00.720Z,8.28
2019-06-10T11:08:28.413Z,8.93
2019-06-10T11:11:01.023Z,8.95
2019-06-10T11:13:33.345Z,8.65
2019-06-10T11:16:03.519Z,8.10
2019-06-10T11:18:34.031Z,8.18
2019-06-10T11:21:05.019Z,8.45
2019-06-10T11:23:34.823Z,7.92
2019-06-10T11:26:04.822Z,8.45
2019-06-10T11:28:34.127Z,8.70
2019-06-10T11:31:03.998Z,7.72
2019-06-10T11:33:33.816Z,8.18
2019-06-10T11:36:03.383Z,7.62
2019-06-10T11:38:33.768Z,7.90
2019-06-10T11:41:03.160Z,8.73
2019-06-10T11:43:33.143Z,8.15
2019-06-10T11:46:07.144Z,8.23
2019-06-10T11:48:34.911Z,7.87
2019-06-10T11:51:04.905Z,7.95
2019-06-10T11:53:34.780Z,7.33
2019-06-10T11:56:04.599Z,6.78
2019-06-10T11:58:33.993Z,7.92
2019-06-10T12:01:04.140Z,8.05
2019-06-10T12:03:33.699Z,7.80
2019-06-10T12:06:05.294Z,7.35
2019-06-10T12:08:34.029Z,7.87
2019-06-10T12:11:03.355Z,7.17
2019-06-10T12:13:34.214Z,7.47
2019-06-10T12:18:34.734Z,7.03
2019-06-10T12:21:04.131Z,7.30
2019-06-10T12:23:33.845Z,8.05
2019-06-10T12:26:04.847Z,7.33
2019-06-10T12:28:34.518Z,7.42
2019-06-10T12:31:06.880Z,7.62
2019-06-10T12:33:34.986Z,7.42
2019-06-10T12:36:07.045Z,6.72
2019-06-10T12:38:35.663Z,7.42
2019-06-10T12:41:09.721Z,6.87
2019-06-10T12:43:35.998Z,7.22
2019-06-10T12:46:05.473Z,6.83
2019-06-10T12:48:34.940Z,7.33
2019-06-10T12:51:08.770Z,7.03
2019-06-10T12:53:35.387Z,6.70
2019-06-10T12:56:10.039Z,7.17
2019-06-10T12:58:35.864Z,6.45
2019-06-10T13:01:06.210Z,6.42
2019-06-10T13:03:36.175Z,6.75
2019-06-10T13:06:09.059Z,6.47
2019-06-10T13:08:36.485Z,6.47
2019-06-10T13:11:05.797Z,6.70
2019-06-10T13:13:35.105Z,6.92
2019-06-10T13:16:08.253Z,6.90
2019-06-10T13:18:35.403Z,6.78
2019-06-10T13:21:11.889Z,6.90
2019-06-10T13:23:36.292Z,7.10
2019-06-10T13:26:10.845Z,7.45
2019-06-10T13:28:36.681Z,7.30
2019-06-10T13:31:09.540Z,6.33
2019-06-10T13:33:37.049Z,6.70
2019-06-10T13:36:08.283Z,7.30
2019-06-10T13:38:37.356Z,6.50
2019-06-10T13:41:07.793Z,6.50
2019-06-10T13:43:37.761Z,6.60
2019-06-10T13:46:09.387Z,6.92
2019-06-10T13:48:38.093Z,6.47
2019-06-10T13:51:10.989Z,6.78
2019-06-10T13:53:38.473Z,7.28
2019-06-10T13:56:37.054Z,6.83
2019-06-10T13:58:38.808Z,6.28
2019-06-10T14:01:12.036Z,6.92
2019-06-10T14:03:39.128Z,6.60
2019-06-10T14:06:31.872Z,6.97
2019-06-10T14:08:39.467Z,6.92
2019-06-10T14:11:08.776Z,6.58
2019-06-10T14:13:38.103Z,6.80
2019-06-10T14:16:07.631Z,6.35
2019-06-10T14:18:37.007Z,6.55
2019-06-10T14:21:09.011Z,6.10
2019-06-10T14:23:37.403Z,6.50
2019-06-10T14:26:08.468Z,6.67
2019-06-10T14:28:40.968Z,6.80
2019-06-10T14:31:29.888Z,6.78
2019-06-10T14:33:39.757Z,6.17
2019-06-10T14:36:10.491Z,6.05
2019-06-10T14:38:42.064Z,6.22
2019-06-10T14:41:12.278Z,6.50
2019-06-10T14:43:42.406Z,6.20
2019-06-10T14:46:15.789Z,5.80
2019-06-10T14:48:42.886Z,5.62
2019-06-10T14:51:15.168Z,5.97
2019-06-10T14:53:43.205Z,6.70
2019-06-10T14:56:16.764Z,6.33
2019-06-10T14:58:43.530Z,5.65
2019-06-10T15:01:19.778Z,6.42
2019-06-10T15:03:43.872Z,5.60
2019-06-10T15:06:13.487Z,6.47
2019-06-10T15:08:43.000Z,5.87
2019-06-10T15:11:12.266Z,6.17
2019-06-10T15:13:43.491Z,5.55
2019-06-10T15:16:14.204Z,5.90
2019-06-10T15:18:43.589Z,6.03
2019-06-10T15:21:13.245Z,5.60
2019-06-10T15:23:43.166Z,6.12
2019-06-10T15:26:15.637Z,5.67
2019-06-10T15:28:44.540Z,6.40
2019-06-10T15:31:16.310Z,5.80
2019-06-10T15:33:44.843Z,5.85
2019-06-10T15:36:15.293Z,5.62
2019-06-10T15:38:44.724Z,5.80
2019-06-10T15:41:17.905Z,6.33
2019-06-10T15:43:45.028Z,5.55
2019-06-10T15:46:15.861Z,5.72
2019-06-10T15:48:45.342Z,5.30
2019-06-10T15:51:17.492Z,5.37
2019-06-10T15:53:45.639Z,6.30
2019-06-10T15:56:27.048Z,6.00
2019-06-10T15:58:46.124Z,5.10
2019-06-10T16:01:20.035Z,5.55
2019-06-10T16:03:46.418Z,5.37
2019-06-10T16:06:16.080Z,5.75
2019-06-10T16:08:46.042Z,6.15
2019-06-10T16:11:18.291Z,6.20
2019-06-10T16:13:46.346Z,5.60
2019-06-10T16:16:16.860Z,5.97
2019-06-10T16:18:46.758Z,6.58
2019-06-10T16:21:17.440Z,6.75
2019-06-10T16:23:47.057Z,6.05
2019-06-10T16:26:16.372Z,6.75
2019-06-10T16:28:45.675Z,6.42
2019-06-10T16:31:16.617Z,6.78
2019-06-10T16:33:49.339Z,6.62
2019-06-10T16:36:17.316Z,6.47
2019-06-10T16:38:46.574Z,6.35
2019-06-10T16:41:15.899Z,6.50
2019-06-10T16:43:45.202Z,6.05
2019-06-10T16:46:15.945Z,6.40
2019-06-10T16:48:45.420Z,6.45
2019-06-10T16:51:14.753Z,6.53
2019-06-10T16:53:44.049Z,6.37
2019-06-10T16:56:13.372Z,6.33
2019-06-10T16:58:43.284Z,6.40
2019-06-10T17:01:12.778Z,5.80
2019-06-10T17:03:42.610Z,6.35
2019-06-10T17:06:13.247Z,6.33
2019-06-10T17:08:42.761Z,6.15
2019-06-10T17:11:12.518Z,6.50
2019-06-10T17:13:42.389Z,6.55
2019-06-10T17:16:12.689Z,6.08
2019-06-10T17:18:42.103Z,6.28
2019-06-10T17:21:13.273Z,6.87
2019-06-10T17:23:43.360Z,6.55
2019-06-10T17:26:13.010Z,6.83
2019-06-10T17:28:42.888Z,6.42
2019-06-10T17:31:12.323Z,7.03
2019-06-10T17:33:42.703Z,6.35
2019-06-10T17:36:12.712Z,5.75
2019-06-10T17:38:42.964Z,6.20
2019-06-10T17:41:13.326Z,6.47
2019-06-10T17:43:43.030Z,8.43
2019-06-10T17:46:14.051Z,6.53
2019-06-10T17:48:43.357Z,6.78
2019-06-10T17:51:13.651Z,6.67
2019-06-10T17:53:42.957Z,6.62
2019-06-10T17:56:13.374Z,6.58
2019-06-10T17:58:54.217Z,6.80
2019-06-10T18:01:14.938Z,6.47
2019-06-10T18:03:45.214Z,6.78
2019-06-10T18:06:14.541Z,6.28
2019-06-10T18:08:43.840Z,6.15
2019-06-10T18:11:13.175Z,6.67
2019-06-10T18:13:43.455Z,6.50
2019-06-10T18:16:13.274Z,6.47
2019-06-10T18:18:42.783Z,6.75
2019-06-10T18:21:12.704Z,6.90
2019-06-10T18:23:43.442Z,6.12
2019-06-10T18:26:12.990Z,6.35
2019-06-10T18:29:00.443Z,6.22
2019-06-10T18:31:13.301Z,5.90
2019-06-10T18:33:42.772Z,5.67
2019-06-10T18:36:12.303Z,6.40
2019-06-10T18:38:43.373Z,5.40
2019-06-10T18:41:12.980Z,5.70
2019-06-10T18:43:42.326Z,5.80
2019-06-10T18:46:12.792Z,5.45
2019-06-10T18:48:43.154Z,5.30
2019-06-10T18:51:12.763Z,6.12
2019-06-10T18:53:42.712Z,6.00
2019-06-10T18:56:12.881Z,6.03
2019-06-10T18:58:42.681Z,6.53
2019-06-10T19:01:12.562Z,5.75
2019-06-10T19:03:43.096Z,6.25
2019-06-10T19:06:12.787Z,5.72
2019-06-10T19:08:44.349Z,6.37
2019-06-10T19:11:13.277Z,5.58
2019-06-10T19:13:43.631Z,6.75
2019-06-10T19:16:13.303Z,5.80
2019-06-10T19:18:43.298Z,6.10
2019-06-10T19:21:13.255Z,6.17
2019-06-10T19:23:43.811Z,6.17
2019-06-10T19:26:13.673Z,5.75
2019-06-10T19:28:45.122Z,5.92
2019-06-10T19:31:14.201Z,5.80
2019-06-10T19:33:45.153Z,5.50
2019-06-10T19:36:14.760Z,6.12
2019-06-10T19:38:44.439Z,6.03
2019-06-10T19:41:13.763Z,6.25
2019-06-10T19:43:45.252Z,5.65
2019-06-10T19:46:14.086Z,6.08
2019-06-10T19:48:55.518Z,6.20
2019-06-10T19:51:14.527Z,6.40
2019-06-10T19:53:45.138Z,6.33
2019-06-10T19:56:14.565Z,5.75
2019-06-10T19:58:46.348Z,6.30
2019-06-10T20:01:14.882Z,6.22
2019-06-10T20:03:46.493Z,6.35
2019-06-10T20:06:15.279Z,6.05
2019-06-10T20:08:46.132Z,6.00
2019-06-10T20:11:15.576Z,6.05
2019-06-10T20:13:46.592Z,6.45
2019-06-10T20:16:15.895Z,6.05
2019-06-10T20:18:47.602Z,6.10
2019-06-10T20:21:16.216Z,6.22
2019-06-10T20:23:45.893Z,5.78
2019-06-10T20:26:15.291Z,6.12
2019-06-10T20:28:46.688Z,6.92
2019-06-10T20:31:15.619Z,5.65
2019-06-10T20:33:44.946Z,5.30
2019-06-10T20:36:21.909Z,5.65
2019-06-10T20:38:48.605Z,5.45
2019-06-10T20:41:16.434Z,6.25
2019-06-10T20:43:47.262Z,5.70
2019-06-10T20:46:16.767Z,5.80
2019-06-10T20:48:49.342Z,5.50
2019-06-10T20:51:17.095Z,5.55
2019-06-10T20:53:47.992Z,5.15
2019-06-10T20:56:20.253Z,5.53
2019-06-10T20:58:49.761Z,5.80
2019-06-10T21:01:19.484Z,5.20
2019-06-10T21:03:49.864Z,4.97
2019-06-10T21:06:22.358Z,5.50
2019-06-10T21:08:52.992Z,4.92
2019-06-10T21:11:23.063Z,5.20
2019-06-10T21:13:55.527Z,5.55
2019-06-10T21:16:23.472Z,5.37
2019-06-10T21:18:55.598Z,5.00
2019-06-10T21:21:23.778Z,5.47
2019-06-10T21:23:54.081Z,4.75
2019-06-10T21:26:23.951Z,5.00
2019-06-10T21:28:55.060Z,4.97
2019-06-10T21:31:24.690Z,5.05
2019-06-10T21:33:55.767Z,5.03
2019-06-10T21:36:24.982Z,5.25
2019-06-10T21:38:55.985Z,5.25
2019-06-10T21:41:25.432Z,5.12
2019-06-10T21:43:59.134Z,5.00
2019-06-10T21:46:26.085Z,4.87
2019-06-10T21:48:55.912Z,5.15
2019-06-10T21:51:25.523Z,4.90
2019-06-10T21:53:55.232Z,5.10
2019-06-10T21:56:24.726Z,4.92
2019-06-10T21:58:55.560Z,5.20
2019-06-10T22:01:25.330Z,5.08
2019-06-10T22:04:00.719Z,5.33
2019-06-10T22:06:25.653Z,4.87
2019-06-10T22:08:56.543Z,5.00
2019-06-10T22:11:26.154Z,4.95
2019-06-10T22:13:56.369Z,5.08
2019-06-10T22:16:25.955Z,4.62
2019-06-10T22:18:55.318Z,4.78
2019-06-10T22:21:24.629Z,4.75
2019-06-10T22:23:55.656Z,4.35
2019-06-10T22:26:24.950Z,4.67
2019-06-10T22:28:56.248Z,4.72
2019-06-10T22:31:26.504Z,4.85
2019-06-10T22:33:57.595Z,5.05
2019-06-10T22:36:27.164Z,5.00
2019-06-10T22:38:58.745Z,4.40
2019-06-10T22:41:27.481Z,4.42
2019-06-10T22:43:57.582Z,4.92
2019-06-10T22:46:26.981Z,4.72
2019-06-10T22:48:56.550Z,5.20
2019-06-10T22:51:25.879Z,4.50
2019-06-10T22:53:58.420Z,4.67
2019-06-10T22:56:26.197Z,4.35
2019-06-10T22:58:56.997Z,4.25
2019-06-10T23:01:33.834Z,4.50
2019-06-10T23:03:57.690Z,4.35
2019-06-10T23:06:27.008Z,4.60
2019-06-10T23:08:57.793Z,4.53
2019-06-10T23:11:27.407Z,4.62
2019-06-10T23:13:58.079Z,4.50
2019-06-10T23:16:27.879Z,4.15
2019-06-10T23:18:58.347Z,3.90
2019-06-10T23:21:28.196Z,4.60
2019-06-10T23:23:58.565Z,4.42
2019-06-10T23:26:27.995Z,4.15
2019-06-10T23:28:58.786Z,4.33
2019-06-10T23:31:28.411Z,4.40
2019-06-10T23:33:57.705Z,4.37
2019-06-10T23:36:27.007Z,4.37
2019-06-10T23:38:57.064Z,4.10
2019-06-10T23:41:26.480Z,4.55
2019-06-10T23:43:56.938Z,4.08
2019-06-10T23:46:26.462Z,4.30
2019-06-10T23:48:55.759Z,4.22
2019-06-10T23:51:25.055Z,4.10
2019-06-10T23:53:58.096Z,4.03
2019-06-10T23:56:25.354Z,4.30
2019-06-10T23:58:55.979Z,4.10
